sensor_id;sensor_type;location;lat;lon;timestamp;P1;durP1;ratioP1;P2;durP2;ratioP2
54883;SDS011;40776;52.880;6.016;2023-03-13T00:00:31;33.17;;;6.22;;
54883;SDS011;40776;52.880;6.016;2023-03-13T00:02:57;21.45;;;4.25;;
54883;SDS011;40776;52.880;6.016;2023-03-13T00:05:23;37.00;;;4.80;;
54883;SDS011;40776;52.880;6.016;2023-03-13T00:07:49;32.40;;;5.30;;
54883;SDS011;40776;52.880;6.016;2023-03-13T00:10:15;29.95;;;4.45;;
54883;SDS011;40776;52.880;6.016;2023-03-13T00:12:41;37.60;;;6.47;;
54883;SDS011;40776;52.880;6.016;2023-03-13T00:15:07;31.08;;;6.78;;
54883;SDS011;40776;52.880;6.016;2023-03-13T00:17:34;34.38;;;5.63;;
54883;SDS011;40776;52.880;6.016;2023-03-13T00:20:00;34.58;;;6.28;;
54883;SDS011;40776;52.880;6.016;2023-03-13T00:22:26;31.90;;;4.82;;
54883;SDS011;40776;52.880;6.016;2023-03-13T00:24:52;29.40;;;6.00;;
54883;SDS011;40776;52.880;6.016;2023-03-13T00:27:18;30.85;;;4.32;;
54883;SDS011;40776;52.880;6.016;2023-03-13T00:29:44;30.75;;;5.28;;
54883;SDS011;40776;52.880;6.016;2023-03-13T00:32:10;22.13;;;4.30;;
54883;SDS011;40776;52.880;6.016;2023-03-13T00:34:37;26.00;;;5.25;;
54883;SDS011;40776;52.880;6.016;2023-03-13T00:37:03;23.90;;;4.07;;
54883;SDS011;40776;52.880;6.016;2023-03-13T00:39:29;30.38;;;4.32;;
54883;SDS011;40776;52.880;6.016;2023-03-13T00:41:55;29.80;;;5.50;;
54883;SDS011;40776;52.880;6.016;2023-03-13T00:44:21;32.17;;;4.70;;
54883;SDS011;40776;52.880;6.016;2023-03-13T00:46:47;33.20;;;5.55;;
54883;SDS011;40776;52.880;6.016;2023-03-13T00:49:13;27.27;;;5.25;;
54883;SDS011;40776;52.880;6.016;2023-03-13T00:51:39;31.27;;;6.07;;
54883;SDS011;40776;52.880;6.016;2023-03-13T00:54:05;29.63;;;5.97;;
54883;SDS011;40776;52.880;6.016;2023-03-13T00:56:31;24.85;;;4.97;;
54883;SDS011;40776;52.880;6.016;2023-03-13T00:58:58;31.55;;;7.45;;
54883;SDS011;40776;52.880;6.016;2023-03-13T01:01:26;27.42;;;4.57;;
54883;SDS011;40776;52.880;6.016;2023-03-13T01:03:56;31.25;;;5.18;;
54883;SDS011;40776;52.880;6.016;2023-03-13T01:06:24;27.77;;;5.13;;
54883;SDS011;40776;52.880;6.016;2023-03-13T01:08:50;23.42;;;5.00;;
54883;SDS011;40776;52.880;6.016;2023-03-13T01:11:20;22.15;;;5.43;;
54883;SDS011;40776;52.880;6.016;2023-03-13T01:13:47;26.48;;;4.95;;
54883;SDS011;40776;52.880;6.016;2023-03-13T01:16:15;26.98;;;5.28;;
54883;SDS011;40776;52.880;6.016;2023-03-13T01:18:43;28.23;;;5.70;;
54883;SDS011;40776;52.880;6.016;2023-03-13T01:21:10;36.92;;;5.88;;
54883;SDS011;40776;52.880;6.016;2023-03-13T01:23:36;35.45;;;6.32;;
54883;SDS011;40776;52.880;6.016;2023-03-13T01:26:03;30.27;;;5.97;;
54883;SDS011;40776;52.880;6.016;2023-03-13T01:28:30;21.90;;;5.00;;
54883;SDS011;40776;52.880;6.016;2023-03-13T01:30:56;22.50;;;5.50;;
54883;SDS011;40776;52.880;6.016;2023-03-13T01:33:22;30.60;;;5.65;;
54883;SDS011;40776;52.880;6.016;2023-03-13T01:35:48;24.55;;;5.13;;
54883;SDS011;40776;52.880;6.016;2023-03-13T01:38:14;18.38;;;5.88;;
54883;SDS011;40776;52.880;6.016;2023-03-13T01:40:47;25.48;;;4.80;;
54883;SDS011;40776;52.880;6.016;2023-03-13T01:43:18;21.30;;;4.55;;
54883;SDS011;40776;52.880;6.016;2023-03-13T01:48:24;23.67;;;4.65;;
54883;SDS011;40776;52.880;6.016;2023-03-13T01:50:52;27.83;;;4.68;;
54883;SDS011;40776;52.880;6.016;2023-03-13T01:53:19;31.17;;;5.68;;
54883;SDS011;40776;52.880;6.016;2023-03-13T01:55:45;29.60;;;7.10;;
54883;SDS011;40776;52.880;6.016;2023-03-13T01:58:11;14.95;;;4.00;;
54883;SDS011;40776;52.880;6.016;2023-03-13T02:00:38;23.98;;;5.30;;
54883;SDS011;40776;52.880;6.016;2023-03-13T02:03:08;31.67;;;5.22;;
54883;SDS011;40776;52.880;6.016;2023-03-13T02:05:35;21.35;;;5.15;;
54883;SDS011;40776;52.880;6.016;2023-03-13T02:10:34;20.98;;;5.28;;
54883;SDS011;40776;52.880;6.016;2023-03-13T02:13:02;20.85;;;6.35;;
54883;SDS011;40776;52.880;6.016;2023-03-13T02:15:28;14.45;;;4.03;;
54883;SDS011;40776;52.880;6.016;2023-03-13T02:17:55;26.08;;;4.90;;
54883;SDS011;40776;52.880;6.016;2023-03-13T02:20:21;18.85;;;5.25;;
54883;SDS011;40776;52.880;6.016;2023-03-13T02:25:45;15.88;;;4.85;;
54883;SDS011;40776;52.880;6.016;2023-03-13T02:28:13;18.00;;;5.15;;
54883;SDS011;40776;52.880;6.016;2023-03-13T02:30:41;14.43;;;4.22;;
54883;SDS011;40776;52.880;6.016;2023-03-13T02:33:07;11.77;;;3.85;;
54883;SDS011;40776;52.880;6.016;2023-03-13T02:35:35;15.98;;;4.22;;
54883;SDS011;40776;52.880;6.016;2023-03-13T02:38:02;17.40;;;4.00;;
54883;SDS011;40776;52.880;6.016;2023-03-13T02:40:31;9.20;;;4.13;;
54883;SDS011;40776;52.880;6.016;2023-03-13T02:42:59;14.63;;;5.05;;
54883;SDS011;40776;52.880;6.016;2023-03-13T02:45:25;10.55;;;4.30;;
54883;SDS011;40776;52.880;6.016;2023-03-13T02:47:51;10.95;;;4.50;;
54883;SDS011;40776;52.880;6.016;2023-03-13T02:50:17;13.75;;;4.35;;
54883;SDS011;40776;52.880;6.016;2023-03-13T02:52:44;12.15;;;4.22;;
54883;SDS011;40776;52.880;6.016;2023-03-13T02:55:13;11.73;;;4.25;;
54883;SDS011;40776;52.880;6.016;2023-03-13T03:00:08;5.30;;;2.80;;
54883;SDS011;40776;52.880;6.016;2023-03-13T03:02:36;7.25;;;3.70;;
54883;SDS011;40776;52.880;6.016;2023-03-13T03:05:03;11.70;;;4.43;;
54883;SDS011;40776;52.880;6.016;2023-03-13T03:07:29;7.72;;;4.30;;
54883;SDS011;40776;52.880;6.016;2023-03-13T03:09:55;8.45;;;2.88;;
54883;SDS011;40776;52.880;6.016;2023-03-13T03:12:21;8.57;;;3.45;;
54883;SDS011;40776;52.880;6.016;2023-03-13T03:14:47;11.45;;;4.55;;
54883;SDS011;40776;52.880;6.016;2023-03-13T03:17:13;7.97;;;4.32;;
54883;SDS011;40776;52.880;6.016;2023-03-13T03:19:39;9.13;;;3.88;;
54883;SDS011;40776;52.880;6.016;2023-03-13T03:22:05;5.45;;;3.00;;
54883;SDS011;40776;52.880;6.016;2023-03-13T03:24:31;9.52;;;3.90;;
54883;SDS011;40776;52.880;6.016;2023-03-13T03:26:57;9.57;;;4.85;;
54883;SDS011;40776;52.880;6.016;2023-03-13T03:29:23;11.35;;;5.53;;
54883;SDS011;40776;52.880;6.016;2023-03-13T03:31:49;11.30;;;5.22;;
54883;SDS011;40776;52.880;6.016;2023-03-13T03:34:15;10.50;;;5.45;;
54883;SDS011;40776;52.880;6.016;2023-03-13T03:36:41;9.95;;;5.45;;
54883;SDS011;40776;52.880;6.016;2023-03-13T03:39:07;4.72;;;3.10;;
54883;SDS011;40776;52.880;6.016;2023-03-13T03:41:33;8.73;;;4.32;;
54883;SDS011;40776;52.880;6.016;2023-03-13T03:44:01;11.15;;;5.90;;
54883;SDS011;40776;52.880;6.016;2023-03-13T03:46:27;10.23;;;5.53;;
54883;SDS011;40776;52.880;6.016;2023-03-13T03:48:53;17.55;;;7.10;;
54883;SDS011;40776;52.880;6.016;2023-03-13T03:51:19;10.75;;;6.15;;
54883;SDS011;40776;52.880;6.016;2023-03-13T03:53:46;13.25;;;5.85;;
54883;SDS011;40776;52.880;6.016;2023-03-13T03:56:12;15.35;;;6.78;;
54883;SDS011;40776;52.880;6.016;2023-03-13T03:58:38;13.45;;;6.65;;
54883;SDS011;40776;52.880;6.016;2023-03-13T04:01:04;11.27;;;6.07;;
54883;SDS011;40776;52.880;6.016;2023-03-13T04:03:30;14.38;;;7.50;;
54883;SDS011;40776;52.880;6.016;2023-03-13T04:05:56;11.82;;;7.53;;
54883;SDS011;40776;52.880;6.016;2023-03-13T04:08:22;11.32;;;6.85;;
54883;SDS011;40776;52.880;6.016;2023-03-13T04:10:48;10.45;;;6.13;;
54883;SDS011;40776;52.880;6.016;2023-03-13T04:13:15;15.88;;;8.48;;
54883;SDS011;40776;52.880;6.016;2023-03-13T04:15:41;16.17;;;8.60;;
54883;SDS011;40776;52.880;6.016;2023-03-13T04:18:07;15.15;;;8.25;;
54883;SDS011;40776;52.880;6.016;2023-03-13T04:20:34;14.23;;;7.63;;
54883;SDS011;40776;52.880;6.016;2023-03-13T04:23:00;16.20;;;8.63;;
54883;SDS011;40776;52.880;6.016;2023-03-13T04:25:26;20.65;;;12.65;;
54883;SDS011;40776;52.880;6.016;2023-03-13T04:27:52;18.77;;;8.63;;
54883;SDS011;40776;52.880;6.016;2023-03-13T04:30:18;16.77;;;9.70;;
54883;SDS011;40776;52.880;6.016;2023-03-13T04:32:44;19.90;;;10.00;;
54883;SDS011;40776;52.880;6.016;2023-03-13T04:35:10;18.50;;;7.70;;
54883;SDS011;40776;52.880;6.016;2023-03-13T04:37:36;21.95;;;12.20;;
54883;SDS011;40776;52.880;6.016;2023-03-13T04:40:02;17.30;;;8.15;;
54883;SDS011;40776;52.880;6.016;2023-03-13T04:42:29;12.27;;;6.53;;
54883;SDS011;40776;52.880;6.016;2023-03-13T04:44:55;15.13;;;8.48;;
54883;SDS011;40776;52.880;6.016;2023-03-13T04:47:21;16.95;;;8.95;;
54883;SDS011;40776;52.880;6.016;2023-03-13T04:49:47;19.63;;;9.25;;
54883;SDS011;40776;52.880;6.016;2023-03-13T04:52:13;17.25;;;9.50;;
54883;SDS011;40776;52.880;6.016;2023-03-13T04:54:39;15.52;;;8.65;;
54883;SDS011;40776;52.880;6.016;2023-03-13T04:57:05;13.40;;;5.88;;
54883;SDS011;40776;52.880;6.016;2023-03-13T04:59:31;15.13;;;7.78;;
54883;SDS011;40776;52.880;6.016;2023-03-13T05:01:57;10.77;;;5.15;;
54883;SDS011;40776;52.880;6.016;2023-03-13T05:04:23;12.35;;;7.05;;
54883;SDS011;40776;52.880;6.016;2023-03-13T05:06:49;10.98;;;5.22;;
54883;SDS011;40776;52.880;6.016;2023-03-13T05:09:15;15.45;;;7.53;;
54883;SDS011;40776;52.880;6.016;2023-03-13T05:11:41;9.65;;;5.60;;
54883;SDS011;40776;52.880;6.016;2023-03-13T05:14:07;9.27;;;4.43;;
54883;SDS011;40776;52.880;6.016;2023-03-13T05:16:36;10.13;;;5.57;;
54883;SDS011;40776;52.880;6.016;2023-03-13T05:19:02;13.85;;;5.18;;
54883;SDS011;40776;52.880;6.016;2023-03-13T05:21:28;9.23;;;5.03;;
54883;SDS011;40776;52.880;6.016;2023-03-13T05:23:54;9.25;;;4.90;;
54883;SDS011;40776;52.880;6.016;2023-03-13T05:26:20;6.55;;;4.38;;
54883;SDS011;40776;52.880;6.016;2023-03-13T05:28:46;13.48;;;5.45;;
54883;SDS011;40776;52.880;6.016;2023-03-13T05:31:12;13.07;;;5.00;;
54883;SDS011;40776;52.880;6.016;2023-03-13T05:33:38;10.93;;;5.28;;
54883;SDS011;40776;52.880;6.016;2023-03-13T05:36:04;10.95;;;5.82;;
54883;SDS011;40776;52.880;6.016;2023-03-13T05:38:30;12.27;;;4.97;;
54883;SDS011;40776;52.880;6.016;2023-03-13T05:40:56;7.28;;;3.58;;
54883;SDS011;40776;52.880;6.016;2023-03-13T05:43:22;7.50;;;3.42;;
54883;SDS011;40776;52.880;6.016;2023-03-13T05:45:48;8.23;;;3.78;;
54883;SDS011;40776;52.880;6.016;2023-03-13T05:48:14;11.50;;;4.38;;
54883;SDS011;40776;52.880;6.016;2023-03-13T05:50:40;5.82;;;3.95;;
54883;SDS011;40776;52.880;6.016;2023-03-13T05:53:06;8.40;;;4.45;;
54883;SDS011;40776;52.880;6.016;2023-03-13T05:55:32;9.90;;;4.47;;
54883;SDS011;40776;52.880;6.016;2023-03-13T05:57:58;9.38;;;4.75;;
54883;SDS011;40776;52.880;6.016;2023-03-13T06:00:25;10.95;;;4.00;;
54883;SDS011;40776;52.880;6.016;2023-03-13T06:02:51;13.85;;;5.68;;
54883;SDS011;40776;52.880;6.016;2023-03-13T06:05:17;17.60;;;5.43;;
54883;SDS011;40776;52.880;6.016;2023-03-13T06:07:43;7.15;;;4.07;;
54883;SDS011;40776;52.880;6.016;2023-03-13T06:10:09;11.70;;;5.10;;
54883;SDS011;40776;52.880;6.016;2023-03-13T06:12:36;13.13;;;5.72;;
54883;SDS011;40776;52.880;6.016;2023-03-13T06:15:02;13.80;;;5.95;;
54883;SDS011;40776;52.880;6.016;2023-03-13T06:17:30;16.92;;;5.60;;
54883;SDS011;40776;52.880;6.016;2023-03-13T06:19:56;12.35;;;5.85;;
54883;SDS011;40776;52.880;6.016;2023-03-13T06:22:22;12.27;;;5.35;;
54883;SDS011;40776;52.880;6.016;2023-03-13T06:24:48;13.85;;;5.00;;
54883;SDS011;40776;52.880;6.016;2023-03-13T06:27:15;8.93;;;3.95;;
54883;SDS011;40776;52.880;6.016;2023-03-13T06:29:41;11.32;;;4.53;;
54883;SDS011;40776;52.880;6.016;2023-03-13T06:32:07;12.98;;;3.78;;
54883;SDS011;40776;52.880;6.016;2023-03-13T06:34:33;9.02;;;3.78;;
54883;SDS011;40776;52.880;6.016;2023-03-13T06:36:59;13.98;;;4.35;;
54883;SDS011;40776;52.880;6.016;2023-03-13T06:39:25;14.50;;;4.30;;
54883;SDS011;40776;52.880;6.016;2023-03-13T06:41:51;10.27;;;3.08;;
54883;SDS011;40776;52.880;6.016;2023-03-13T06:44:17;15.05;;;4.72;;
54883;SDS011;40776;52.880;6.016;2023-03-13T06:46:43;10.98;;;3.47;;
54883;SDS011;40776;52.880;6.016;2023-03-13T06:49:09;15.65;;;4.32;;
54883;SDS011;40776;52.880;6.016;2023-03-13T06:51:35;10.20;;;3.33;;
54883;SDS011;40776;52.880;6.016;2023-03-13T06:54:01;13.50;;;4.15;;
54883;SDS011;40776;52.880;6.016;2023-03-13T06:56:28;15.35;;;4.53;;
54883;SDS011;40776;52.880;6.016;2023-03-13T06:58:54;8.38;;;3.38;;
54883;SDS011;40776;52.880;6.016;2023-03-13T07:01:20;16.02;;;5.72;;
54883;SDS011;40776;52.880;6.016;2023-03-13T07:03:46;15.45;;;4.40;;
54883;SDS011;40776;52.880;6.016;2023-03-13T07:06:12;15.02;;;4.00;;
54883;SDS011;40776;52.880;6.016;2023-03-13T07:08:38;11.88;;;3.42;;
54883;SDS011;40776;52.880;6.016;2023-03-13T07:11:06;15.43;;;3.40;;
54883;SDS011;40776;52.880;6.016;2023-03-13T07:13:32;21.35;;;3.75;;
54883;SDS011;40776;52.880;6.016;2023-03-13T07:15:59;9.80;;;3.17;;
54883;SDS011;40776;52.880;6.016;2023-03-13T07:18:25;13.35;;;3.70;;
54883;SDS011;40776;52.880;6.016;2023-03-13T07:20:52;9.13;;;2.63;;
54883;SDS011;40776;52.880;6.016;2023-03-13T07:23:18;10.93;;;3.20;;
54883;SDS011;40776;52.880;6.016;2023-03-13T07:25:51;12.60;;;4.05;;
54883;SDS011;40776;52.880;6.016;2023-03-13T07:28:18;15.52;;;3.30;;
54883;SDS011;40776;52.880;6.016;2023-03-13T07:30:44;14.75;;;3.47;;
54883;SDS011;40776;52.880;6.016;2023-03-13T07:33:10;16.85;;;4.32;;
54883;SDS011;40776;52.880;6.016;2023-03-13T07:35:36;13.38;;;4.80;;
54883;SDS011;40776;52.880;6.016;2023-03-13T07:38:02;7.97;;;2.78;;
54883;SDS011;40776;52.880;6.016;2023-03-13T07:40:28;7.32;;;2.40;;
54883;SDS011;40776;52.880;6.016;2023-03-13T07:42:54;10.20;;;3.20;;
54883;SDS011;40776;52.880;6.016;2023-03-13T07:45:20;8.93;;;3.08;;
54883;SDS011;40776;52.880;6.016;2023-03-13T07:47:46;8.77;;;2.13;;
54883;SDS011;40776;52.880;6.016;2023-03-13T07:50:12;10.38;;;3.00;;
54883;SDS011;40776;52.880;6.016;2023-03-13T07:52:38;7.50;;;2.80;;
54883;SDS011;40776;52.880;6.016;2023-03-13T07:55:04;7.07;;;2.55;;
54883;SDS011;40776;52.880;6.016;2023-03-13T07:57:30;6.40;;;3.20;;
54883;SDS011;40776;52.880;6.016;2023-03-13T07:59:56;8.65;;;2.65;;
54883;SDS011;40776;52.880;6.016;2023-03-13T08:02:22;7.00;;;2.88;;
54883;SDS011;40776;52.880;6.016;2023-03-13T08:04:51;5.50;;;2.47;;
54883;SDS011;40776;52.880;6.016;2023-03-13T08:07:17;11.20;;;3.20;;
54883;SDS011;40776;52.880;6.016;2023-03-13T08:09:43;5.32;;;2.20;;
54883;SDS011;40776;52.880;6.016;2023-03-13T08:12:10;10.07;;;2.78;;
54883;SDS011;40776;52.880;6.016;2023-03-13T08:14:36;5.20;;;2.15;;
54883;SDS011;40776;52.880;6.016;2023-03-13T08:17:02;11.13;;;2.42;;
54883;SDS011;40776;52.880;6.016;2023-03-13T08:19:28;7.80;;;2.40;;
54883;SDS011;40776;52.880;6.016;2023-03-13T08:21:54;6.63;;;2.63;;
54883;SDS011;40776;52.880;6.016;2023-03-13T08:24:20;7.20;;;1.67;;
54883;SDS011;40776;52.880;6.016;2023-03-13T08:26:46;6.50;;;1.90;;
54883;SDS011;40776;52.880;6.016;2023-03-13T08:29:13;8.55;;;1.50;;
54883;SDS011;40776;52.880;6.016;2023-03-13T08:31:46;12.02;;;1.60;;
54883;SDS011;40776;52.880;6.016;2023-03-13T08:34:13;4.75;;;1.42;;
54883;SDS011;40776;52.880;6.016;2023-03-13T08:36:40;6.88;;;1.17;;
54883;SDS011;40776;52.880;6.016;2023-03-13T08:39:08;5.82;;;1.80;;
54883;SDS011;40776;52.880;6.016;2023-03-13T08:41:34;5.40;;;1.77;;
54883;SDS011;40776;52.880;6.016;2023-03-13T08:44:01;5.03;;;1.60;;
54883;SDS011;40776;52.880;6.016;2023-03-13T08:46:28;11.18;;;1.77;;
54883;SDS011;40776;52.880;6.016;2023-03-13T08:48:54;8.35;;;1.38;;
54883;SDS011;40776;52.880;6.016;2023-03-13T08:51:21;9.73;;;1.98;;
54883;SDS011;40776;52.880;6.016;2023-03-13T08:53:48;3.42;;;1.67;;
54883;SDS011;40776;52.880;6.016;2023-03-13T08:56:15;9.23;;;1.58;;
54883;SDS011;40776;52.880;6.016;2023-03-13T08:58:41;6.80;;;2.35;;
54883;SDS011;40776;52.880;6.016;2023-03-13T09:01:11;19.92;;;2.08;;
54883;SDS011;40776;52.880;6.016;2023-03-13T09:03:37;6.95;;;2.10;;
54883;SDS011;40776;52.880;6.016;2023-03-13T09:06:04;10.38;;;2.10;;
54883;SDS011;40776;52.880;6.016;2023-03-13T09:08:30;8.77;;;2.00;;
54883;SDS011;40776;52.880;6.016;2023-03-13T09:10:59;12.50;;;3.90;;
54883;SDS011;40776;52.880;6.016;2023-03-13T09:13:26;8.20;;;1.70;;
54883;SDS011;40776;52.880;6.016;2023-03-13T09:15:52;9.63;;;2.35;;
54883;SDS011;40776;52.880;6.016;2023-03-13T09:18:18;8.98;;;2.05;;
54883;SDS011;40776;52.880;6.016;2023-03-13T09:20:44;11.70;;;2.13;;
54883;SDS011;40776;52.880;6.016;2023-03-13T09:23:11;9.07;;;2.15;;
54883;SDS011;40776;52.880;6.016;2023-03-13T09:25:37;6.60;;;2.33;;
54883;SDS011;40776;52.880;6.016;2023-03-13T09:28:03;12.40;;;2.47;;
54883;SDS011;40776;52.880;6.016;2023-03-13T09:30:29;6.45;;;1.90;;
54883;SDS011;40776;52.880;6.016;2023-03-13T09:32:56;7.35;;;2.08;;
54883;SDS011;40776;52.880;6.016;2023-03-13T09:35:22;7.45;;;2.22;;
54883;SDS011;40776;52.880;6.016;2023-03-13T09:37:48;9.35;;;2.47;;
54883;SDS011;40776;52.880;6.016;2023-03-13T09:40:16;11.93;;;1.92;;
54883;SDS011;40776;52.880;6.016;2023-03-13T09:42:49;8.95;;;1.73;;
54883;SDS011;40776;52.880;6.016;2023-03-13T09:45:27;7.20;;;2.67;;
54883;SDS011;40776;52.880;6.016;2023-03-13T09:47:57;7.80;;;1.70;;
54883;SDS011;40776;52.880;6.016;2023-03-13T09:50:28;7.38;;;1.92;;
54883;SDS011;40776;52.880;6.016;2023-03-13T09:52:56;5.07;;;1.65;;
54883;SDS011;40776;52.880;6.016;2023-03-13T09:55:28;8.18;;;1.88;;
54883;SDS011;40776;52.880;6.016;2023-03-13T09:57:57;23.90;;;2.50;;
54883;SDS011;40776;52.880;6.016;2023-03-13T10:00:25;13.10;;;2.55;;
54883;SDS011;40776;52.880;6.016;2023-03-13T10:02:56;9.88;;;1.90;;
54883;SDS011;40776;52.880;6.016;2023-03-13T10:05:24;8.18;;;1.65;;
54883;SDS011;40776;52.880;6.016;2023-03-13T10:07:52;8.02;;;1.90;;
54883;SDS011;40776;52.880;6.016;2023-03-13T10:10:25;13.27;;;2.15;;
54883;SDS011;40776;52.880;6.016;2023-03-13T10:12:55;9.75;;;1.92;;
54883;SDS011;40776;52.880;6.016;2023-03-13T10:17:51;14.13;;;2.28;;
54883;SDS011;40776;52.880;6.016;2023-03-13T10:20:27;16.45;;;2.55;;
54883;SDS011;40776;52.880;6.016;2023-03-13T10:25:39;19.55;;;3.60;;
54883;SDS011;40776;52.880;6.016;2023-03-13T10:28:07;19.00;;;4.28;;
54883;SDS011;40776;52.880;6.016;2023-03-13T10:30:35;10.73;;;2.10;;
54883;SDS011;40776;52.880;6.016;2023-03-13T10:35:35;10.43;;;2.47;;
54883;SDS011;40776;52.880;6.016;2023-03-13T10:38:04;7.85;;;2.05;;
54883;SDS011;40776;52.880;6.016;2023-03-13T10:40:30;8.90;;;1.67;;
54883;SDS011;40776;52.880;6.016;2023-03-13T10:43:04;12.55;;;2.72;;
54883;SDS011;40776;52.880;6.016;2023-03-13T10:45:31;12.20;;;2.17;;
54883;SDS011;40776;52.880;6.016;2023-03-13T10:48:00;8.77;;;1.63;;
54883;SDS011;40776;52.880;6.016;2023-03-13T10:50:26;16.58;;;3.15;;
54883;SDS011;40776;52.880;6.016;2023-03-13T10:52:53;7.07;;;1.80;;
54883;SDS011;40776;52.880;6.016;2023-03-13T10:55:20;12.00;;;1.98;;
54883;SDS011;40776;52.880;6.016;2023-03-13T10:58:00;7.43;;;1.88;;
54883;SDS011;40776;52.880;6.016;2023-03-13T11:00:33;12.18;;;1.83;;
54883;SDS011;40776;52.880;6.016;2023-03-13T11:03:01;11.35;;;2.00;;
54883;SDS011;40776;52.880;6.016;2023-03-13T11:07:56;12.80;;;1.90;;
54883;SDS011;40776;52.880;6.016;2023-03-13T11:12:52;11.75;;;1.88;;
54883;SDS011;40776;52.880;6.016;2023-03-13T11:15:29;6.00;;;1.60;;
54883;SDS011;40776;52.880;6.016;2023-03-13T11:17:58;5.90;;;2.30;;
54883;SDS011;40776;52.880;6.016;2023-03-13T11:20:26;7.00;;;1.73;;
54883;SDS011;40776;52.880;6.016;2023-03-13T11:25:36;5.88;;;1.50;;
54883;SDS011;40776;52.880;6.016;2023-03-13T11:31:03;4.20;;;1.20;;
54883;SDS011;40776;52.880;6.016;2023-03-13T11:36:22;6.45;;;1.50;;
54883;SDS011;40776;52.880;6.016;2023-03-13T11:38:54;6.78;;;1.63;;
54883;SDS011;40776;52.880;6.016;2023-03-13T11:41:29;6.05;;;1.35;;
54883;SDS011;40776;52.880;6.016;2023-03-13T11:44:02;6.22;;;1.98;;
54883;SDS011;40776;52.880;6.016;2023-03-13T11:46:42;7.45;;;2.03;;
54883;SDS011;40776;52.880;6.016;2023-03-13T11:51:52;14.02;;;2.50;;
54883;SDS011;40776;52.880;6.016;2023-03-13T11:56:56;6.93;;;1.52;;
54883;SDS011;40776;52.880;6.016;2023-03-13T12:01:53;10.48;;;2.35;;
54883;SDS011;40776;52.880;6.016;2023-03-13T12:04:24;9.63;;;2.78;;
54883;SDS011;40776;52.880;6.016;2023-03-13T12:07:01;6.38;;;1.60;;
54883;SDS011;40776;52.880;6.016;2023-03-13T12:09:44;9.55;;;2.20;;
54883;SDS011;40776;52.880;6.016;2023-03-13T12:15:14;9.98;;;1.90;;
54883;SDS011;40776;52.880;6.016;2023-03-13T12:17:34;9.68;;;2.60;;
54883;SDS011;40776;52.880;6.016;2023-03-13T12:20:06;12.60;;;2.88;;
54883;SDS011;40776;52.880;6.016;2023-03-13T12:25:34;8.30;;;2.47;;
54883;SDS011;40776;52.880;6.016;2023-03-13T12:28:17;9.60;;;2.80;;
54883;SDS011;40776;52.880;6.016;2023-03-13T12:31:08;12.25;;;2.42;;
54883;SDS011;40776;52.880;6.016;2023-03-13T12:33:39;16.08;;;3.65;;
54883;SDS011;40776;52.880;6.016;2023-03-13T12:38:36;11.15;;;2.58;;
54883;SDS011;40776;52.880;6.016;2023-03-13T12:43:33;18.77;;;2.92;;
54883;SDS011;40776;52.880;6.016;2023-03-13T12:46:05;18.60;;;2.40;;
54883;SDS011;40776;52.880;6.016;2023-03-13T12:48:43;14.85;;;2.80;;
54883;SDS011;40776;52.880;6.016;2023-03-13T12:51:33;13.20;;;3.28;;
54883;SDS011;40776;52.880;6.016;2023-03-13T12:59:23;17.65;;;3.63;;
54883;SDS011;40776;52.880;6.016;2023-03-13T13:01:52;11.82;;;2.80;;
54883;SDS011;40776;52.880;6.016;2023-03-13T13:04:22;15.70;;;3.38;;
54883;SDS011;40776;52.880;6.016;2023-03-13T13:09:19;14.68;;;2.42;;
54883;SDS011;40776;52.880;6.016;2023-03-13T13:11:47;12.25;;;2.35;;
54883;SDS011;40776;52.880;6.016;2023-03-13T13:16:43;15.00;;;3.30;;
54883;SDS011;40776;52.880;6.016;2023-03-13T13:19:41;23.05;;;2.95;;
54883;SDS011;40776;52.880;6.016;2023-03-13T13:32:43;17.92;;;3.28;;
54883;SDS011;40776;52.880;6.016;2023-03-13T13:37:36;16.15;;;4.43;;
54883;SDS011;40776;52.880;6.016;2023-03-13T13:45:23;14.75;;;2.90;;
54883;SDS011;40776;52.880;6.016;2023-03-13T13:47:50;12.45;;;3.67;;
54883;SDS011;40776;52.880;6.016;2023-03-13T13:50:31;27.10;;;4.55;;
54883;SDS011;40776;52.880;6.016;2023-03-13T13:55:54;16.95;;;3.45;;
54883;SDS011;40776;52.880;6.016;2023-03-13T13:58:23;17.58;;;3.58;;
54883;SDS011;40776;52.880;6.016;2023-03-13T14:05:49;13.63;;;3.08;;
54883;SDS011;40776;52.880;6.016;2023-03-13T14:08:19;16.35;;;3.83;;
54883;SDS011;40776;52.880;6.016;2023-03-13T14:11:32;7.50;;;2.63;;
54883;SDS011;40776;52.880;6.016;2023-03-13T14:16:38;12.85;;;2.58;;
54883;SDS011;40776;52.880;6.016;2023-03-13T14:19:17;15.45;;;2.70;;
54883;SDS011;40776;52.880;6.016;2023-03-13T14:21:44;18.83;;;2.95;;
54883;SDS011;40776;52.880;6.016;2023-03-13T14:24:13;15.60;;;3.42;;
54883;SDS011;40776;52.880;6.016;2023-03-13T14:26:43;18.07;;;2.80;;
54883;SDS011;40776;52.880;6.016;2023-03-13T14:29:16;15.98;;;3.50;;
54883;SDS011;40776;52.880;6.016;2023-03-13T14:31:52;16.85;;;4.80;;
54883;SDS011;40776;52.880;6.016;2023-03-13T14:34:18;21.90;;;3.50;;
54883;SDS011;40776;52.880;6.016;2023-03-13T14:36:54;23.08;;;3.63;;
54883;SDS011;40776;52.880;6.016;2023-03-13T14:39:35;17.90;;;3.20;;
54883;SDS011;40776;52.880;6.016;2023-03-13T14:44:31;22.02;;;4.00;;
54883;SDS011;40776;52.880;6.016;2023-03-13T14:47:08;19.92;;;4.28;;
54883;SDS011;40776;52.880;6.016;2023-03-13T14:49:43;17.35;;;2.78;;
54883;SDS011;40776;52.880;6.016;2023-03-13T14:52:15;18.58;;;3.63;;
54883;SDS011;40776;52.880;6.016;2023-03-13T14:54:53;17.65;;;3.25;;
54883;SDS011;40776;52.880;6.016;2023-03-13T14:57:20;22.40;;;3.67;;
54883;SDS011;40776;52.880;6.016;2023-03-13T14:59:49;20.33;;;3.53;;
54883;SDS011;40776;52.880;6.016;2023-03-13T15:07:17;16.35;;;3.45;;
54883;SDS011;40776;52.880;6.016;2023-03-13T15:09:44;24.77;;;3.25;;
54883;SDS011;40776;52.880;6.016;2023-03-13T15:12:18;13.93;;;2.60;;
54883;SDS011;40776;52.880;6.016;2023-03-13T15:14:46;19.92;;;2.92;;
54883;SDS011;40776;52.880;6.016;2023-03-13T15:17:22;13.25;;;3.40;;
54883;SDS011;40776;52.880;6.016;2023-03-13T15:19:50;16.98;;;3.38;;
54883;SDS011;40776;52.880;6.016;2023-03-13T15:22:16;13.88;;;3.08;;
54883;SDS011;40776;52.880;6.016;2023-03-13T15:24:43;19.48;;;3.03;;
54883;SDS011;40776;52.880;6.016;2023-03-13T15:27:16;17.00;;;3.55;;
54883;SDS011;40776;52.880;6.016;2023-03-13T15:29:42;19.92;;;2.97;;
54883;SDS011;40776;52.880;6.016;2023-03-13T15:32:13;23.83;;;3.50;;
54883;SDS011;40776;52.880;6.016;2023-03-13T15:34:41;19.50;;;4.80;;
54883;SDS011;40776;52.880;6.016;2023-03-13T15:37:10;18.45;;;4.15;;
54883;SDS011;40776;52.880;6.016;2023-03-13T15:39:37;19.30;;;3.88;;
54883;SDS011;40776;52.880;6.016;2023-03-13T15:42:03;18.00;;;3.58;;
54883;SDS011;40776;52.880;6.016;2023-03-13T15:44:29;27.38;;;3.83;;
54883;SDS011;40776;52.880;6.016;2023-03-13T15:46:55;25.00;;;3.78;;
54883;SDS011;40776;52.880;6.016;2023-03-13T15:49:21;26.40;;;4.32;;
54883;SDS011;40776;52.880;6.016;2023-03-13T15:51:47;26.20;;;3.85;;
54883;SDS011;40776;52.880;6.016;2023-03-13T15:54:13;20.30;;;3.65;;
54883;SDS011;40776;52.880;6.016;2023-03-13T15:56:39;18.65;;;3.95;;
54883;SDS011;40776;52.880;6.016;2023-03-13T15:59:12;25.13;;;4.32;;
54883;SDS011;40776;52.880;6.016;2023-03-13T16:01:39;20.23;;;4.32;;
54883;SDS011;40776;52.880;6.016;2023-03-13T16:04:05;16.83;;;3.92;;
54883;SDS011;40776;52.880;6.016;2023-03-13T16:06:31;19.23;;;3.28;;
54883;SDS011;40776;52.880;6.016;2023-03-13T16:08:58;17.60;;;3.72;;
54883;SDS011;40776;52.880;6.016;2023-03-13T16:11:24;20.27;;;3.65;;
54883;SDS011;40776;52.880;6.016;2023-03-13T16:13:51;14.30;;;3.92;;
54883;SDS011;40776;52.880;6.016;2023-03-13T16:16:21;15.18;;;3.40;;
54883;SDS011;40776;52.880;6.016;2023-03-13T16:18:48;17.55;;;3.35;;